sensor_id;sensor_type;location;lat;lon;timestamp;P1;durP1;ratioP1;P2;durP2;ratioP2
49043;SDS011;34860;48.066;14.124;2022-08-19T00:02:03;0.85;;;0.40;;
49043;SDS011;34860;48.066;14.124;2022-08-19T00:04:52;1.10;;;0.50;;
49043;SDS011;34860;48.066;14.124;2022-08-19T00:07:42;1.75;;;0.88;;
49043;SDS011;34860;48.066;14.124;2022-08-19T00:10:33;1.67;;;0.55;;
49043;SDS011;34860;48.066;14.124;2022-08-19T00:13:22;1.10;;;0.40;;
49043;SDS011;34860;48.066;14.124;2022-08-19T00:16:12;3.00;;;0.77;;
49043;SDS011;34860;48.066;14.124;2022-08-19T00:19:03;2.65;;;1.55;;
49043;SDS011;34860;48.066;14.124;2022-08-19T00:21:54;0.95;;;0.55;;
49043;SDS011;34860;48.066;14.124;2022-08-19T00:24:44;3.53;;;1.40;;
49043;SDS011;34860;48.066;14.124;2022-08-19T00:27:37;2.00;;;0.75;;
49043;SDS011;34860;48.066;14.124;2022-08-19T00:30:29;6.28;;;2.20;;
49043;SDS011;34860;48.066;14.124;2022-08-19T00:33:20;2.05;;;1.13;;
49043;SDS011;34860;48.066;14.124;2022-08-19T00:36:11;1.13;;;0.75;;
49043;SDS011;34860;48.066;14.124;2022-08-19T00:39:03;2.72;;;1.50;;
49043;SDS011;34860;48.066;14.124;2022-08-19T00:41:55;3.03;;;1.10;;
49043;SDS011;34860;48.066;14.124;2022-08-19T00:44:47;7.13;;;1.35;;
49043;SDS011;34860;48.066;14.124;2022-08-19T00:47:44;4.38;;;1.40;;
49043;SDS011;34860;48.066;14.124;2022-08-19T00:50:34;1.08;;;0.88;;
49043;SDS011;34860;48.066;14.124;2022-08-19T00:53:24;3.90;;;1.67;;
49043;SDS011;34860;48.066;14.124;2022-08-19T00:56:17;1.98;;;1.33;;
49043;SDS011;34860;48.066;14.124;2022-08-19T00:59:09;9.43;;;1.73;;
49043;SDS011;34860;48.066;14.124;2022-08-19T01:02:05;0.45;;;0.30;;
49043;SDS011;34860;48.066;14.124;2022-08-19T01:04:54;1.20;;;0.82;;
49043;SDS011;34860;48.066;14.124;2022-08-19T01:07:44;0.88;;;0.63;;
49043;SDS011;34860;48.066;14.124;2022-08-19T01:10:36;1.25;;;1.00;;
49043;SDS011;34860;48.066;14.124;2022-08-19T01:13:30;3.55;;;1.20;;
49043;SDS011;34860;48.066;14.124;2022-08-19T01:16:24;2.15;;;0.40;;
49043;SDS011;34860;48.066;14.124;2022-08-19T01:19:21;3.80;;;0.65;;
49043;SDS011;34860;48.066;14.124;2022-08-19T01:22:18;8.27;;;1.33;;
49043;SDS011;34860;48.066;14.124;2022-08-19T01:25:22;1.48;;;0.70;;
49043;SDS011;34860;48.066;14.124;2022-08-19T01:28:19;0.93;;;0.73;;
49043;SDS011;34860;48.066;14.124;2022-08-19T01:31:13;1.88;;;0.30;;
49043;SDS011;34860;48.066;14.124;2022-08-19T01:34:06;2.67;;;1.07;;
49043;SDS011;34860;48.066;14.124;2022-08-19T01:36:59;2.95;;;1.20;;
49043;SDS011;34860;48.066;14.124;2022-08-19T01:39:58;1.88;;;1.38;;
49043;SDS011;34860;48.066;14.124;2022-08-19T01:42:50;4.13;;;0.75;;
49043;SDS011;34860;48.066;14.124;2022-08-19T01:59:18;3.15;;;0.85;;
49043;SDS011;34860;48.066;14.124;2022-08-19T02:02:11;7.03;;;0.52;;
49043;SDS011;34860;48.066;14.124;2022-08-19T02:05:03;1.25;;;0.82;;
49043;SDS011;34860;48.066;14.124;2022-08-19T02:07:55;0.80;;;0.60;;
49043;SDS011;34860;48.066;14.124;2022-08-19T02:10:46;1.95;;;1.13;;
49043;SDS011;34860;48.066;14.124;2022-08-19T02:13:39;0.93;;;0.65;;
49043;SDS011;34860;48.066;14.124;2022-08-19T02:16:32;1.85;;;0.57;;
49043;SDS011;34860;48.066;14.124;2022-08-19T02:19:24;0.70;;;0.43;;
49043;SDS011;34860;48.066;14.124;2022-08-19T02:22:16;0.43;;;0.22;;
49043;SDS011;34860;48.066;14.124;2022-08-19T02:25:07;1.10;;;0.50;;
49043;SDS011;34860;48.066;14.124;2022-08-19T02:27:59;2.72;;;0.40;;
49043;SDS011;34860;48.066;14.124;2022-08-19T02:30:50;1.33;;;0.95;;
49043;SDS011;34860;48.066;14.124;2022-08-19T02:33:40;0.40;;;0.40;;
49043;SDS011;34860;48.066;14.124;2022-08-19T02:36:29;0.22;;;0.15;;
49043;SDS011;34860;48.066;14.124;2022-08-19T02:39:19;0.82;;;0.57;;
49043;SDS011;34860;48.066;14.124;2022-08-19T02:42:06;0.50;;;0.32;;
49043;SDS011;34860;48.066;14.124;2022-08-19T02:44:55;0.77;;;0.60;;
49043;SDS011;34860;48.066;14.124;2022-08-19T02:47:44;1.40;;;0.70;;
49043;SDS011;34860;48.066;14.124;2022-08-19T02:50:36;0.47;;;0.43;;
49043;SDS011;34860;48.066;14.124;2022-08-19T02:53:26;1.83;;;1.02;;
49043;SDS011;34860;48.066;14.124;2022-08-19T02:56:16;0.98;;;0.57;;
49043;SDS011;34860;48.066;14.124;2022-08-19T02:59:06;1.83;;;0.88;;
49043;SDS011;34860;48.066;14.124;2022-08-19T03:01:58;0.50;;;0.45;;
49043;SDS011;34860;48.066;14.124;2022-08-19T03:04:47;1.75;;;0.85;;
49043;SDS011;34860;48.066;14.124;2022-08-19T03:07:37;0.70;;;0.60;;
49043;SDS011;34860;48.066;14.124;2022-08-19T03:10:26;2.45;;;0.80;;
49043;SDS011;34860;48.066;14.124;2022-08-19T03:13:16;10.15;;;1.13;;
49043;SDS011;34860;48.066;14.124;2022-08-19T03:16:06;1.13;;;0.63;;
49043;SDS011;34860;48.066;14.124;2022-08-19T03:18:55;3.47;;;1.08;;
49043;SDS011;34860;48.066;14.124;2022-08-19T03:21:46;1.58;;;0.80;;
49043;SDS011;34860;48.066;14.124;2022-08-19T03:24:37;15.23;;;1.60;;
49043;SDS011;34860;48.066;14.124;2022-08-19T03:27:26;1.83;;;0.93;;
49043;SDS011;34860;48.066;14.124;2022-08-19T03:30:18;1.77;;;0.65;;
49043;SDS011;34860;48.066;14.124;2022-08-19T03:33:08;2.05;;;0.93;;
49043;SDS011;34860;48.066;14.124;2022-08-19T03:36:03;2.92;;;0.75;;
49043;SDS011;34860;48.066;14.124;2022-08-19T03:38:56;2.47;;;1.33;;
49043;SDS011;34860;48.066;14.124;2022-08-19T03:41:50;3.13;;;0.95;;
49043;SDS011;34860;48.066;14.124;2022-08-19T03:44:40;1.10;;;0.82;;
49043;SDS011;34860;48.066;14.124;2022-08-19T03:47:31;2.33;;;0.77;;
49043;SDS011;34860;48.066;14.124;2022-08-19T03:50:21;1.42;;;1.05;;
49043;SDS011;34860;48.066;14.124;2022-08-19T03:53:11;1.35;;;1.05;;
49043;SDS011;34860;48.066;14.124;2022-08-19T03:56:00;1.30;;;0.73;;
49043;SDS011;34860;48.066;14.124;2022-08-19T03:58:51;0.90;;;0.70;;
49043;SDS011;34860;48.066;14.124;2022-08-19T04:01:40;5.00;;;1.35;;
49043;SDS011;34860;48.066;14.124;2022-08-19T04:04:30;2.05;;;0.70;;
49043;SDS011;34860;48.066;14.124;2022-08-19T04:07:18;9.90;;;1.27;;
49043;SDS011;34860;48.066;14.124;2022-08-19T04:10:08;1.75;;;0.98;;
49043;SDS011;34860;48.066;14.124;2022-08-19T04:12:57;4.38;;;1.80;;
49043;SDS011;34860;48.066;14.124;2022-08-19T04:15:48;3.90;;;0.98;;
49043;SDS011;34860;48.066;14.124;2022-08-19T04:18:37;3.70;;;1.40;;
49043;SDS011;34860;48.066;14.124;2022-08-19T04:21:27;1.00;;;0.75;;
49043;SDS011;34860;48.066;14.124;2022-08-19T04:24:16;4.10;;;1.70;;
49043;SDS011;34860;48.066;14.124;2022-08-19T04:27:06;2.42;;;1.52;;
49043;SDS011;34860;48.066;14.124;2022-08-19T04:29:55;1.63;;;1.08;;
49043;SDS011;34860;48.066;14.124;2022-08-19T04:32:46;1.38;;;1.27;;
49043;SDS011;34860;48.066;14.124;2022-08-19T04:35:36;1.77;;;1.13;;
49043;SDS011;34860;48.066;14.124;2022-08-19T04:38:26;1.30;;;1.00;;
49043;SDS011;34860;48.066;14.124;2022-08-19T04:41:15;3.10;;;1.65;;
49043;SDS011;34860;48.066;14.124;2022-08-19T04:44:21;3.92;;;2.20;;
49043;SDS011;34860;48.066;14.124;2022-08-19T04:47:10;4.32;;;1.95;;
49043;SDS011;34860;48.066;14.124;2022-08-19T04:50:01;1.98;;;0.95;;
49043;SDS011;34860;48.066;14.124;2022-08-19T04:52:50;2.20;;;1.20;;
49043;SDS011;34860;48.066;14.124;2022-08-19T04:55:40;5.05;;;1.42;;
49043;SDS011;34860;48.066;14.124;2022-08-19T04:58:29;2.63;;;1.33;;
49043;SDS011;34860;48.066;14.124;2022-08-19T05:01:20;1.65;;;1.05;;
49043;SDS011;34860;48.066;14.124;2022-08-19T05:04:10;1.20;;;0.85;;
49043;SDS011;34860;48.066;14.124;2022-08-19T05:07:01;10.43;;;2.25;;
49043;SDS011;34860;48.066;14.124;2022-08-19T05:09:50;3.80;;;1.88;;
49043;SDS011;34860;48.066;14.124;2022-08-19T05:12:39;2.78;;;1.52;;
49043;SDS011;34860;48.066;14.124;2022-08-19T05:15:28;1.92;;;1.00;;
49043;SDS011;34860;48.066;14.124;2022-08-19T05:18:17;2.70;;;1.52;;
49043;SDS011;34860;48.066;14.124;2022-08-19T05:21:32;6.68;;;1.27;;
49043;SDS011;34860;48.066;14.124;2022-08-19T05:24:40;1.25;;;0.95;;
49043;SDS011;34860;48.066;14.124;2022-08-19T05:27:37;2.15;;;1.05;;
49043;SDS011;34860;48.066;14.124;2022-08-19T05:30:26;3.72;;;2.05;;
49043;SDS011;34860;48.066;14.124;2022-08-19T05:33:19;2.63;;;0.98;;
49043;SDS011;34860;48.066;14.124;2022-08-19T05:36:08;2.50;;;1.63;;
49043;SDS011;34860;48.066;14.124;2022-08-19T05:38:57;14.90;;;2.33;;
49043;SDS011;34860;48.066;14.124;2022-08-19T05:41:48;2.22;;;1.17;;
49043;SDS011;34860;48.066;14.124;2022-08-19T05:44:40;6.53;;;1.35;;
49043;SDS011;34860;48.066;14.124;2022-08-19T05:47:31;4.80;;;1.98;;
49043;SDS011;34860;48.066;14.124;2022-08-19T05:50:22;2.70;;;1.25;;
49043;SDS011;34860;48.066;14.124;2022-08-19T05:53:13;1.95;;;1.42;;
49043;SDS011;34860;48.066;14.124;2022-08-19T05:56:03;2.88;;;1.25;;
49043;SDS011;34860;48.066;14.124;2022-08-19T05:58:55;3.50;;;1.35;;
49043;SDS011;34860;48.066;14.124;2022-08-19T06:01:47;4.10;;;1.85;;
49043;SDS011;34860;48.066;14.124;2022-08-19T06:04:38;3.47;;;1.60;;
49043;SDS011;34860;48.066;14.124;2022-08-19T06:07:29;5.60;;;1.27;;
49043;SDS011;34860;48.066;14.124;2022-08-19T06:10:18;2.13;;;1.50;;
49043;SDS011;34860;48.066;14.124;2022-08-19T06:13:07;4.70;;;2.20;;
49043;SDS011;34860;48.066;14.124;2022-08-19T06:15:57;2.92;;;1.92;;
49043;SDS011;34860;48.066;14.124;2022-08-19T06:18:46;3.70;;;2.20;;
49043;SDS011;34860;48.066;14.124;2022-08-19T06:21:36;4.28;;;1.17;;
49043;SDS011;34860;48.066;14.124;2022-08-19T06:24:27;3.08;;;1.23;;
49043;SDS011;34860;48.066;14.124;2022-08-19T06:27:17;1.70;;;1.17;;
49043;SDS011;34860;48.066;14.124;2022-08-19T06:30:06;4.82;;;2.45;;
49043;SDS011;34860;48.066;14.124;2022-08-19T06:32:57;4.28;;;1.98;;
49043;SDS011;34860;48.066;14.124;2022-08-19T06:35:46;5.18;;;1.67;;
49043;SDS011;34860;48.066;14.124;2022-08-19T06:38:35;2.83;;;1.75;;
49043;SDS011;34860;48.066;14.124;2022-08-19T06:41:24;5.63;;;2.70;;
49043;SDS011;34860;48.066;14.124;2022-08-19T06:44:13;3.80;;;1.45;;
49043;SDS011;34860;48.066;14.124;2022-08-19T06:47:04;6.55;;;1.88;;
49043;SDS011;34860;48.066;14.124;2022-08-19T06:49:55;3.63;;;2.17;;
49043;SDS011;34860;48.066;14.124;2022-08-19T06:52:50;4.85;;;2.00;;
49043;SDS011;34860;48.066;14.124;2022-08-19T06:55:39;2.53;;;1.70;;
49043;SDS011;34860;48.066;14.124;2022-08-19T06:58:30;14.65;;;2.58;;
49043;SDS011;34860;48.066;14.124;2022-08-19T07:01:20;2.50;;;1.65;;
49043;SDS011;34860;48.066;14.124;2022-08-19T07:04:09;3.15;;;2.13;;
49043;SDS011;34860;48.066;14.124;2022-08-19T07:07:00;6.25;;;2.20;;
49043;SDS011;34860;48.066;14.124;2022-08-19T07:09:53;4.32;;;1.98;;
49043;SDS011;34860;48.066;14.124;2022-08-19T07:12:42;3.65;;;2.22;;
49043;SDS011;34860;48.066;14.124;2022-08-19T07:15:31;4.72;;;1.73;;
49043;SDS011;34860;48.066;14.124;2022-08-19T07:18:20;2.38;;;1.50;;
49043;SDS011;34860;48.066;14.124;2022-08-19T07:21:11;4.82;;;2.65;;
49043;SDS011;34860;48.066;14.124;2022-08-19T07:24:03;9.48;;;2.33;;
49043;SDS011;34860;48.066;14.124;2022-08-19T07:26:53;3.35;;;1.92;;
49043;SDS011;34860;48.066;14.124;2022-08-19T07:29:50;5.53;;;2.65;;
49043;SDS011;34860;48.066;14.124;2022-08-19T07:32:40;2.08;;;1.77;;
49043;SDS011;34860;48.066;14.124;2022-08-19T07:35:29;2.63;;;1.42;;
49043;SDS011;34860;48.066;14.124;2022-08-19T07:38:19;5.47;;;2.15;;
49043;SDS011;34860;48.066;14.124;2022-08-19T07:41:10;6.60;;;2.03;;
49043;SDS011;34860;48.066;14.124;2022-08-19T07:44:00;6.22;;;2.25;;
49043;SDS011;34860;48.066;14.124;2022-08-19T07:46:51;3.70;;;2.25;;
49043;SDS011;34860;48.066;14.124;2022-08-19T07:49:42;4.90;;;1.75;;
49043;SDS011;34860;48.066;14.124;2022-08-19T07:52:31;3.28;;;2.05;;
49043;SDS011;34860;48.066;14.124;2022-08-19T07:55:23;4.68;;;2.55;;
49043;SDS011;34860;48.066;14.124;2022-08-19T07:58:16;4.95;;;2.50;;
49043;SDS011;34860;48.066;14.124;2022-08-19T08:01:08;4.22;;;1.95;;
49043;SDS011;34860;48.066;14.124;2022-08-19T08:04:01;7.95;;;2.45;;
49043;SDS011;34860;48.066;14.124;2022-08-19T08:07:07;3.90;;;2.35;;
49043;SDS011;34860;48.066;14.124;2022-08-19T08:10:14;4.50;;;2.15;;
49043;SDS011;34860;48.066;14.124;2022-08-19T08:13:03;2.70;;;1.67;;
49043;SDS011;34860;48.066;14.124;2022-08-19T08:15:53;3.50;;;2.50;;
49043;SDS011;34860;48.066;14.124;2022-08-19T08:18:42;3.38;;;1.70;;
49043;SDS011;34860;48.066;14.124;2022-08-19T08:21:32;1.73;;;1.23;;
49043;SDS011;34860;48.066;14.124;2022-08-19T08:24:21;4.10;;;2.50;;
49043;SDS011;34860;48.066;14.124;2022-08-19T08:27:11;4.30;;;2.38;;
49043;SDS011;34860;48.066;14.124;2022-08-19T08:30:06;2.97;;;1.98;;
49043;SDS011;34860;48.066;14.124;2022-08-19T08:33:02;6.83;;;2.40;;
49043;SDS011;34860;48.066;14.124;2022-08-19T08:35:54;5.07;;;2.58;;
49043;SDS011;34860;48.066;14.124;2022-08-19T08:38:45;3.70;;;1.98;;
49043;SDS011;34860;48.066;14.124;2022-08-19T08:41:39;3.75;;;1.83;;
49043;SDS011;34860;48.066;14.124;2022-08-19T08:44:39;3.63;;;1.73;;
49043;SDS011;34860;48.066;14.124;2022-08-19T08:47:49;6.15;;;2.22;;
49043;SDS011;34860;48.066;14.124;2022-08-19T08:50:49;4.70;;;2.28;;
49043;SDS011;34860;48.066;14.124;2022-08-19T08:53:47;4.63;;;2.53;;
49043;SDS011;34860;48.066;14.124;2022-08-19T08:56:42;7.38;;;3.00;;
49043;SDS011;34860;48.066;14.124;2022-08-19T08:59:36;3.05;;;2.05;;
49043;SDS011;34860;48.066;14.124;2022-08-19T09:02:31;4.47;;;2.63;;
49043;SDS011;34860;48.066;14.124;2022-08-19T09:05:23;4.03;;;2.75;;
49043;SDS011;34860;48.066;14.124;2022-08-19T09:08:36;4.78;;;2.33;;
49043;SDS011;34860;48.066;14.124;2022-08-19T09:14:34;3.00;;;2.00;;
49043;SDS011;34860;48.066;14.124;2022-08-19T09:17:38;4.53;;;2.03;;
49043;SDS011;34860;48.066;14.124;2022-08-19T09:20:28;3.50;;;1.90;;
49043;SDS011;34860;48.066;14.124;2022-08-19T09:23:18;10.65;;;4.07;;
49043;SDS011;34860;48.066;14.124;2022-08-19T09:26:11;4.05;;;1.83;;
49043;SDS011;34860;48.066;14.124;2022-08-19T09:29:02;4.60;;;2.22;;
49043;SDS011;34860;48.066;14.124;2022-08-19T09:31:53;3.72;;;2.35;;
49043;SDS011;34860;48.066;14.124;2022-08-19T09:34:43;4.65;;;2.80;;
49043;SDS011;34860;48.066;14.124;2022-08-19T09:37:35;2.90;;;2.00;;
49043;SDS011;34860;48.066;14.124;2022-08-19T09:40:25;2.80;;;1.60;;
49043;SDS011;34860;48.066;14.124;2022-08-19T09:43:17;6.57;;;2.95;;
49043;SDS011;34860;48.066;14.124;2022-08-19T09:46:08;4.70;;;2.03;;
49043;SDS011;34860;48.066;14.124;2022-08-19T09:48:58;7.70;;;1.92;;
49043;SDS011;34860;48.066;14.124;2022-08-19T09:51:49;3.35;;;2.13;;
49043;SDS011;34860;48.066;14.124;2022-08-19T09:54:39;7.45;;;2.30;;
49043;SDS011;34860;48.066;14.124;2022-08-19T09:57:30;4.68;;;1.55;;
49043;SDS011;34860;48.066;14.124;2022-08-19T10:00:22;11.95;;;2.47;;
49043;SDS011;34860;48.066;14.124;2022-08-19T10:03:12;10.30;;;1.73;;
49043;SDS011;34860;48.066;14.124;2022-08-19T10:06:03;3.33;;;1.88;;
49043;SDS011;34860;48.066;14.124;2022-08-19T10:08:54;2.70;;;1.75;;
49043;SDS011;34860;48.066;14.124;2022-08-19T10:11:44;3.45;;;1.75;;
49043;SDS011;34860;48.066;14.124;2022-08-19T10:14:39;1.45;;;0.98;;
49043;SDS011;34860;48.066;14.124;2022-08-19T10:17:30;1.55;;;1.15;;
49043;SDS011;34860;48.066;14.124;2022-08-19T10:20:20;2.58;;;1.48;;
49043;SDS011;34860;48.066;14.124;2022-08-19T10:23:10;1.88;;;1.00;;
49043;SDS011;34860;48.066;14.124;2022-08-19T10:26:04;1.83;;;1.42;;
49043;SDS011;34860;48.066;14.124;2022-08-19T10:28:59;1.80;;;1.13;;
49043;SDS011;34860;48.066;14.124;2022-08-19T10:31:52;1.38;;;0.75;;
49043;SDS011;34860;48.066;14.124;2022-08-19T10:34:46;5.13;;;1.88;;
49043;SDS011;34860;48.066;14.124;2022-08-19T10:37:42;3.33;;;1.70;;
49043;SDS011;34860;48.066;14.124;2022-08-19T10:40:34;5.35;;;2.38;;
49043;SDS011;34860;48.066;14.124;2022-08-19T10:43:26;5.15;;;2.03;;
49043;SDS011;34860;48.066;14.124;2022-08-19T10:46:20;3.20;;;1.33;;
49043;SDS011;34860;48.066;14.124;2022-08-19T10:49:14;6.15;;;2.35;;
49043;SDS011;34860;48.066;14.124;2022-08-19T10:52:08;3.22;;;1.20;;
49043;SDS011;34860;48.066;14.124;2022-08-19T10:55:18;4.40;;;1.65;;
49043;SDS011;34860;48.066;14.124;2022-08-19T10:58:26;5.80;;;2.22;;
49043;SDS011;34860;48.066;14.124;2022-08-19T11:01:17;5.65;;;1.63;;
49043;SDS011;34860;48.066;14.124;2022-08-19T11:04:07;1.98;;;1.27;;
49043;SDS011;34860;48.066;14.124;2022-08-19T11:06:58;3.72;;;1.25;;
49043;SDS011;34860;48.066;14.124;2022-08-19T11:09:48;4.78;;;2.10;;
49043;SDS011;34860;48.066;14.124;2022-08-19T11:12:38;1.83;;;1.27;;
49043;SDS011;34860;48.066;14.124;2022-08-19T11:15:27;3.38;;;0.88;;
49043;SDS011;34860;48.066;14.124;2022-08-19T11:18:19;9.13;;;1.60;;
49043;SDS011;34860;48.066;14.124;2022-08-19T11:21:08;2.65;;;1.90;;
49043;SDS011;34860;48.066;14.124;2022-08-19T11:24:02;2.75;;;1.00;;
49043;SDS011;34860;48.066;14.124;2022-08-19T11:26:54;2.25;;;1.05;;
49043;SDS011;34860;48.066;14.124;2022-08-19T11:29:51;6.03;;;1.77;;
49043;SDS011;34860;48.066;14.124;2022-08-19T11:32:40;1.40;;;1.17;;
49043;SDS011;34860;48.066;14.124;2022-08-19T11:35:39;2.97;;;1.48;;
49043;SDS011;34860;48.066;14.124;2022-08-19T11:38:31;4.65;;;1.23;;
49043;SDS011;34860;48.066;14.124;2022-08-19T11:41:21;1.33;;;0.80;;
49043;SDS011;34860;48.066;14.124;2022-08-19T11:44:13;1.73;;;1.15;;
49043;SDS011;34860;48.066;14.124;2022-08-19T11:47:03;4.15;;;1.42;;
49043;SDS011;34860;48.066;14.124;2022-08-19T11:49:55;2.38;;;1.45;;
49043;SDS011;34860;48.066;14.124;2022-08-19T11:52:44;3.55;;;1.48;;
49043;SDS011;34860;48.066;14.124;2022-08-19T11:55:37;4.53;;;1.38;;
49043;SDS011;34860;48.066;14.124;2022-08-19T11:58:27;3.78;;;1.55;;
49043;SDS011;34860;48.066;14.124;2022-08-19T12:01:18;8.60;;;1.20;;
49043;SDS011;34860;48.066;14.124;2022-08-19T12:04:09;3.00;;;1.40;;
49043;SDS011;34860;48.066;14.124;2022-08-19T12:06:58;2.13;;;1.25;;
49043;SDS011;34860;48.066;14.124;2022-08-19T12:09:47;2.97;;;1.63;;
49043;SDS011;34860;48.066;14.124;2022-08-19T12:12:35;1.83;;;1.20;;
49043;SDS011;34860;48.066;14.124;2022-08-19T12:15:27;2.30;;;1.13;;
49043;SDS011;34860;48.066;14.124;2022-08-19T12:18:22;4.07;;;1.65;;
49043;SDS011;34860;48.066;14.124;2022-08-19T12:21:13;3.45;;;1.63;;
49043;SDS011;34860;48.066;14.124;2022-08-19T12:24:06;0.93;;;0.70;;
49043;SDS011;34860;48.066;14.124;2022-08-19T12:26:55;1.88;;;1.02;;
49043;SDS011;34860;48.066;14.124;2022-08-19T12:29:45;4.03;;;0.95;;
49043;SDS011;34860;48.066;14.124;2022-08-19T12:32:34;1.13;;;0.82;;
49043;SDS011;34860;48.066;14.124;2022-08-19T12:35:24;6.53;;;1.48;;
49043;SDS011;34860;48.066;14.124;2022-08-19T12:38:13;1.35;;;1.17;;
49043;SDS011;34860;48.066;14.124;2022-08-19T12:41:03;4.35;;;1.15;;
49043;SDS011;34860;48.066;14.124;2022-08-19T12:43:53;3.88;;;1.40;;
49043;SDS011;34860;48.066;14.124;2022-08-19T12:46:42;4.30;;;1.30;;
49043;SDS011;34860;48.066;14.124;2022-08-19T12:49:32;4.50;;;1.17;;
49043;SDS011;34860;48.066;14.124;2022-08-19T12:52:25;1.23;;;0.70;;
49043;SDS011;34860;48.066;14.124;2022-08-19T12:55:15;2.80;;;1.42;;
49043;SDS011;34860;48.066;14.124;2022-08-19T12:58:05;2.15;;;1.23;;
49043;SDS011;34860;48.066;14.124;2022-08-19T13:00:54;2.20;;;1.10;;
49043;SDS011;34860;48.066;14.124;2022-08-19T13:03:44;1.42;;;0.73;;
49043;SDS011;34860;48.066;14.124;2022-08-19T13:06:34;3.20;;;1.13;;
49043;SDS011;34860;48.066;14.124;2022-08-19T13:09:24;2.97;;;0.80;;
49043;SDS011;34860;48.066;14.124;2022-08-19T13:12:13;2.20;;;0.55;;
49043;SDS011;34860;48.066;14.124;2022-08-19T13:15:02;1.25;;;0.70;;
49043;SDS011;34860;48.066;14.124;2022-08-19T13:17:52;1.92;;;0.82;;
49043;SDS011;34860;48.066;14.124;2022-08-19T13:20:42;1.92;;;0.98;;
49043;SDS011;34860;48.066;14.124;2022-08-19T13:23:31;1.83;;;1.20;;
49043;SDS011;34860;48.066;14.124;2022-08-19T13:26:22;1.90;;;1.10;;
49043;SDS011;34860;48.066;14.124;2022-08-19T13:29:11;1.13;;;0.50;;
49043;SDS011;34860;48.066;14.124;2022-08-19T13:32:17;2.53;;;0.63;;
49043;SDS011;34860;48.066;14.124;2022-08-19T13:35:24;2.13;;;0.98;;
49043;SDS011;34860;48.066;14.124;2022-08-19T13:38:13;1.33;;;0.77;;
49043;SDS011;34860;48.066;14.124;2022-08-19T13:41:04;4.53;;;1.38;;
49043;SDS011;34860;48.066;14.124;2022-08-19T13:43:57;2.75;;;0.50;;
49043;SDS011;34860;48.066;14.124;2022-08-19T13:46:47;1.52;;;0.82;;
49043;SDS011;34860;48.066;14.124;2022-08-19T13:49:41;1.50;;;0.57;;
49043;SDS011;34860;48.066;14.124;2022-08-19T13:52:31;0.90;;;0.50;;
49043;SDS011;34860;48.066;14.124;2022-08-19T13:55:20;1.98;;;0.82;;
49043;SDS011;34860;48.066;14.124;2022-08-19T13:58:10;1.30;;;0.60;;
49043;SDS011;34860;48.066;14.124;2022-08-19T14:01:01;1.33;;;0.60;;
49043;SDS011;34860;48.066;14.124;2022-08-19T14:03:51;1.55;;;0.50;;
49043;SDS011;34860;48.066;14.124;2022-08-19T14:06:40;7.55;;;1.02;;
49043;SDS011;34860;48.066;14.124;2022-08-19T14:09:32;1.27;;;0.95;;
49043;SDS011;34860;48.066;14.124;2022-08-19T14:12:21;1.48;;;0.85;;
49043;SDS011;34860;48.066;14.124;2022-08-19T14:15:11;1.40;;;0.50;;
49043;SDS011;34860;48.066;14.124;2022-08-19T14:18:01;2.35;;;1.17;;
49043;SDS011;34860;48.066;14.124;2022-08-19T14:20:50;0.68;;;0.52;;
49043;SDS011;34860;48.066;14.124;2022-08-19T14:23:39;1.20;;;0.40;;
49043;SDS011;34860;48.066;14.124;2022-08-19T14:26:28;1.27;;;0.60;;
49043;SDS011;34860;48.066;14.124;2022-08-19T14:29:17;4.63;;;0.70;;
49043;SDS011;34860;48.066;14.124;2022-08-19T14:32:06;1.30;;;0.43;;
49043;SDS011;34860;48.066;14.124;2022-08-19T14:34:57;7.13;;;0.95;;
49043;SDS011;34860;48.066;14.124;2022-08-19T14:37:45;1.13;;;0.40;;
49043;SDS011;34860;48.066;14.124;2022-08-19T14:40:34;1.70;;;0.85;;
49043;SDS011;34860;48.066;14.124;2022-08-19T14:43:23;0.60;;;0.52;;
49043;SDS011;34860;48.066;14.124;2022-08-19T14:46:13;1.00;;;0.70;;
49043;SDS011;34860;48.066;14.124;2022-08-19T14:49:02;2.97;;;0.93;;
49043;SDS011;34860;48.066;14.124;2022-08-19T14:51:53;5.10;;;0.82;;
49043;SDS011;34860;48.066;14.124;2022-08-19T14:54:41;0.57;;;0.43;;
49043;SDS011;34860;48.066;14.124;2022-08-19T14:57:31;0.65;;;0.25;;
49043;SDS011;34860;48.066;14.124;2022-08-19T15:00:20;0.20;;;0.10;;
49043;SDS011;34860;48.066;14.124;2022-08-19T15:03:09;0.22;;;0.10;;
49043;SDS011;34860;48.066;14.124;2022-08-19T15:06:00;0.10;;;0.10;;
49043;SDS011;34860;48.066;14.124;2022-08-19T15:08:51;0.10;;;0.00;;
49043;SDS011;34860;48.066;14.124;2022-08-19T15:11:40;1.58;;;0.45;;
49043;SDS011;34860;48.066;14.124;2022-08-19T15:14:30;0.25;;;0.03;;
49043;SDS011;34860;48.066;14.124;2022-08-19T15:17:21;0.00;;;0.00;;
49043;SDS011;34860;48.066;14.124;2022-08-19T15:20:14;1.95;;;0.45;;
49043;SDS011;34860;48.066;14.124;2022-08-19T15:23:05;1.77;;;0.10;;
49043;SDS011;34860;48.066;14.124;2022-08-19T15:25:55;0.20;;;0.10;;
49043;SDS011;34860;48.066;14.124;2022-08-19T15:28:44;5.57;;;0.17;;
49043;SDS011;34860;48.066;14.124;2022-08-19T15:31:33;0.20;;;0.20;;
49043;SDS011;34860;48.066;14.124;2022-08-19T15:34:22;1.55;;;0.68;;
49043;SDS011;34860;48.066;14.124;2022-08-19T15:37:13;1.00;;;0.30;;
49043;SDS011;34860;48.066;14.124;2022-08-19T15:40:04;0.00;;;0.00;;
49043;SDS011;34860;48.066;14.124;2022-08-19T15:42:59;0.93;;;0.10;;
49043;SDS011;34860;48.066;14.124;2022-08-19T15:45:48;0.00;;;0.00;;
49043;SDS011;34860;48.066;14.124;2022-08-19T15:48:37;0.73;;;0.38;;
49043;SDS011;34860;48.066;14.124;2022-08-19T15:51:27;1.20;;;0.55;;
49043;SDS011;34860;48.066;14.124;2022-08-19T15:54:18;0.30;;;0.20;;
49043;SDS011;34860;48.066;14.124;2022-08-19T15:57:09;0.20;;;0.20;;
49043;SDS011;34860;48.066;14.124;2022-08-19T16:00:17;0.10;;;0.10;;
49043;SDS011;34860;48.066;14.124;2022-08-19T16:03:23;0.70;;;0.55;;
49043;SDS011;34860;48.066;14.124;2022-08-19T16:06:29;0.25;;;0.25;;
49043;SDS011;34860;48.066;14.124;2022-08-19T16:09:21;5.35;;;0.40;;
49043;SDS011;34860;48.066;14.124;2022-08-19T16:12:15;0.32;;;0.30;;
49043;SDS011;34860;48.066;14.124;2022-08-19T16:15:06;0.40;;;0.15;;
49043;SDS011;34860;48.066;14.124;2022-08-19T16:17:57;1.30;;;0.40;;
49043;SDS011;34860;48.066;14.124;2022-08-19T16:20:48;0.10;;;0.10;;
49043;SDS011;34860;48.066;14.124;2022-08-19T16:23:37;0.20;;;0.15;;
49043;SDS011;34860;48.066;14.124;2022-08-19T16:26:27;0.10;;;0.10;;
49043;SDS011;34860;48.066;14.124;2022-08-19T16:29:17;0.15;;;0.15;;
49043;SDS011;34860;48.066;14.124;2022-08-19T16:32:11;0.05;;;0.05;;
49043;SDS011;34860;48.066;14.124;2022-08-19T16:35:03;0.10;;;0.10;;
49043;SDS011;34860;48.066;14.124;2022-08-19T16:37:53;0.00;;;0.00;;
49043;SDS011;34860;48.066;14.124;2022-08-19T16:40:42;0.13;;;0.13;;
49043;SDS011;34860;48.066;14.124;2022-08-19T16:43:40;0.20;;;0.20;;
49043;SDS011;34860;48.066;14.124;2022-08-19T16:46:29;0.28;;;0.28;;
49043;SDS011;34860;48.066;14.124;2022-08-19T16:49:19;0.00;;;0.00;;
49043;SDS011;34860;48.066;14.124;2022-08-19T16:52:09;0.30;;;0.30;;
49043;SDS011;34860;48.066;14.124;2022-08-19T16:54:58;0.00;;;0.00;;
49043;SDS011;34860;48.066;14.124;2022-08-19T16:57:47;0.70;;;0.20;;
49043;SDS011;34860;48.066;14.124;2022-08-19T17:00:37;0.10;;;0.10;;
49043;SDS011;34860;48.066;14.124;2022-08-19T17:03:26;1.63;;;0.50;;
49043;SDS011;34860;48.066;14.124;2022-08-19T17:06:16;0.20;;;0.03;;
49043;SDS011;34860;48.066;14.124;2022-08-19T17:09:09;0.20;;;0.05;;
49043;SDS011;34860;48.066;14.124;2022-08-19T17:11:58;0.00;;;0.00;;
49043;SDS011;34860;48.066;14.124;2022-08-19T17:14:47;0.08;;;0.08;;